Time;durP1;ratioP1;P1;durP2;ratioP2;P2;SDS_P1;SDS_P2;PMS_P1;PMS_P2;Temp;Humidity;BMP_temperature;BMP_pressure;BME280_temperature;BME280_humidity;BME280_pressure;Samples;Min_cycle;Max_cycle;Signal;HPM_P1;HPM_P2
2022/02/16 00:01:17;;;;;;;1.83;1.00;;;;;;;3.87;66.94;99536.31;10336291;28;20128;-74
2022/02/16 00:06:19;;;;;;;3.05;1.08;;;;;;;3.95;66.63;99527.53;10336891;28;20038;-74
2022/02/16 00:11:20;;;;;;;1.80;1.13;;;;;;;3.79;66.94;99523.41;10337085;28;20046;-74
2022/02/16 00:16:22;;;;;;;2.55;1.20;;;;;;;4.30;64.02;99505.38;10344368;28;20050;-75
2022/02/16 00:21:24;;;;;;;2.60;1.58;;;;;;;4.36;64.05;99492.28;10345187;28;20046;-73
2022/02/16 00:26:25;;;;;;;1.90;1.00;;;;;;;4.62;62.65;99486.66;10343334;28;20416;-74
2022/02/16 00:31:28;;;;;;;2.80;1.15;;;;;;;4.52;63.06;99485.09;10345520;28;20053;-74
2022/02/16 00:36:30;;;;;;;2.70;1.20;;;;;;;4.73;61.99;99469.09;10344773;28;20057;-74
2022/02/16 00:41:33;;;;;;;2.22;1.10;;;;;;;4.65;62.33;99459.72;10344286;28;20085;-73
2022/02/16 00:46:34;;;;;;;2.03;1.20;;;;;;;4.85;61.96;99451.56;10343807;28;20038;-74
2022/02/16 00:51:36;;;;;;;2.83;1.13;;;;;;;4.91;61.43;99452.28;10342095;28;20058;-73
2022/02/16 00:56:40;;;;;;;3.85;1.00;;;;;;;5.01;61.72;99435.63;10325671;28;20058;-73
2022/02/16 01:01:41;;;;;;;1.88;1.00;;;;;;;4.93;61.72;99439.28;10326119;28;20050;-73
2022/02/16 01:06:43;;;;;;;1.60;1.17;;;;;;;4.79;62.25;99436.91;10359035;28;20101;-73
2022/02/16 01:11:45;;;;;;;1.95;1.23;;;;;;;4.94;61.85;99427.97;10358728;28;20042;-73
2022/02/16 01:16:47;;;;;;;2.25;1.08;;;;;;;4.91;62.11;99412.38;10342476;28;20103;-73
2022/02/16 01:22:09;;;;;;;3.70;1.35;;;;;;;4.64;63.38;99405.94;10341731;28;20046;-73
2022/02/16 01:27:11;;;;;;;3.05;1.20;;;;;;;4.85;62.45;99408.16;10342529;28;20069;-74
2022/02/16 01:32:13;;;;;;;3.00;1.13;;;;;;;4.75;63.06;99404.88;10341528;28;20076;-74
2022/02/16 01:37:16;;;;;;;3.05;1.10;;;;;;;4.79;63.36;99390.91;10323834;28;20049;-74
2022/02/16 01:42:19;;;;;;;5.95;1.17;;;;;;;4.90;63.23;99389.84;10340309;28;20054;-74
2022/02/16 01:47:27;;;;;;;2.30;1.00;;;;;;;4.93;62.84;99377.63;10339593;28;20046;-74
2022/02/16 01:52:29;;;;;;;2.60;0.98;;;;;;;5.18;62.09;99375.41;10339659;28;20053;-74
2022/02/16 01:57:31;;;;;;;2.25;1.10;;;;;;;5.17;62.64;99351.97;10339687;28;20070;-74
2022/02/16 02:02:42;;;;;;;1.63;1.05;;;;;;;5.24;62.26;99345.75;10339090;28;20109;-74
2022/02/16 02:08:06;;;;;;;2.70;1.05;;;;;;;5.21;62.62;99336.22;10336876;28;20129;-74
2022/02/16 02:13:09;;;;;;;4.32;1.40;;;;;;;5.16;63.38;99332.00;10337768;28;20101;-74
2022/02/16 02:18:20;;;;;;;2.15;0.90;;;;;;;5.18;63.20;99322.41;10353536;28;20585;-74
2022/02/16 02:23:22;;;;;;;2.25;1.00;;;;;;;5.23;63.51;99310.16;10337497;28;20053;-74
2022/02/16 02:28:25;;;;;;;1.85;1.08;;;;;;;5.38;62.98;99307.19;10353366;28;20046;-73
2022/02/16 02:33:30;;;;;;;2.17;0.90;;;;;;;5.42;63.40;99298.44;10337089;28;20047;-73
2022/02/16 02:38:35;;;;;;;2.88;1.08;;;;;;;5.43;63.22;99296.66;10337753;28;20035;-73
2022/02/16 02:43:42;;;;;;;1.83;1.02;;;;;;;5.38;63.44;99303.75;10337966;28;20058;-74
2022/02/16 02:48:45;;;;;;;2.85;0.90;;;;;;;5.36;63.71;99298.56;10321834;28;20039;-74
2022/02/16 02:53:48;;;;;;;3.10;1.38;;;;;;;5.44;63.61;99280.97;10353170;28;20467;-74
2022/02/16 02:58:50;;;;;;;0.73;0.70;;;;;;;5.64;62.68;99283.16;10351751;28;20046;-73
2022/02/16 03:03:53;;;;;;;1.63;0.90;;;;;;;5.59;63.62;99274.56;10336818;28;20042;-73
2022/02/16 03:08:57;;;;;;;1.05;0.90;;;;;;;5.50;63.78;99262.63;10351555;28;20046;-73
2022/02/16 03:13:58;;;;;;;2.05;1.00;;;;;;;5.68;63.49;99263.94;10335107;28;20500;-73
2022/02/16 03:19:05;;;;;;;2.15;1.00;;;;;;;5.70;63.46;99246.47;10336188;28;20046;-73
2022/02/16 03:24:08;;;;;;;3.60;1.42;;;;;;;5.91;62.80;99246.84;10335730;28;20527;-73
2022/02/16 03:29:10;;;;;;;1.98;0.90;;;;;;;5.80;63.55;99250.59;10336396;28;20046;-74
2022/02/16 03:34:19;;;;;;;2.42;1.00;;;;;;;5.68;63.96;99243.06;10334415;28;20141;-73
2022/02/16 03:39:22;;;;;;;1.92;0.88;;;;;;;5.76;64.01;99225.50;10334090;28;20530;-74
2022/02/16 03:44:25;;;;;;;2.05;0.82;;;;;;;5.86;63.76;99227.88;10336397;28;20035;-73
2022/02/16 03:49:30;;;;;;;3.13;1.00;;;;;;;5.83;63.99;99213.97;10335000;28;20080;-73
2022/02/16 03:54:34;;;;;;;1.05;0.80;;;;;;;5.79;64.22;99206.28;10334014;28;20404;-73
2022/02/16 03:59:38;;;;;;;1.25;0.82;;;;;;;5.83;63.87;99210.53;10350019;28;20137;-73
2022/02/16 04:04:58;;;;;;;1.73;0.70;;;;;;;5.91;63.59;99211.19;10334973;28;20047;-73
2022/02/16 04:10:00;;;;;;;1.40;0.80;;;;;;;6.00;63.43;99210.13;10349912;28;20110;-73
2022/02/16 04:15:03;;;;;;;3.10;0.90;;;;;;;5.90;63.82;99199.06;10334955;28;20042;-73
2022/02/16 04:20:11;;;;;;;1.10;0.73;;;;;;;5.72;64.38;99186.50;10333713;28;20043;-74
2022/02/16 04:25:14;;;;;;;1.33;0.73;;;;;;;5.69;64.59;99183.94;10317757;28;20039;-74
2022/02/16 04:30:17;;;;;;;2.13;0.63;;;;;;;5.66;65.05;99171.84;10317865;28;20046;-73
2022/02/16 04:35:19;;;;;;;1.00;0.80;;;;;;;5.86;64.48;99171.34;10335177;28;20461;-73
2022/02/16 04:40:20;;;;;;;1.85;0.70;;;;;;;5.99;64.03;99153.63;10335060;28;20046;-74
2022/02/16 04:45:23;;;;;;;2.40;0.70;;;;;;;5.85;64.30;99140.94;10318094;28;20042;-74
2022/02/16 04:50:25;;;;;;;1.13;0.60;;;;;;;5.93;63.96;99133.81;10333554;28;20074;-74
2022/02/16 04:55:27;;;;;;;1.25;0.73;;;;;;;5.81;64.57;99128.88;10334956;28;20043;-73
2022/02/16 05:00:34;;;;;;;0.77;0.50;;;;;;;6.05;63.77;99127.38;10355277;28;20042;-73
2022/02/16 05:05:45;;;;;;;1.10;0.70;;;;;;;5.98;64.20;99129.31;10356973;28;20046;-73
2022/02/16 05:10:47;;;;;;;1.08;0.52;;;;;;;6.02;63.85;99122.22;10324661;28;20042;-72
2022/02/16 05:15:59;;;;;;;0.70;0.50;;;;;;;6.17;63.38;99113.97;10356752;28;20042;-73
2022/02/16 05:21:02;;;;;;;0.70;0.50;;;;;;;6.07;63.82;99112.53;10340119;28;20046;-73
2022/02/16 05:26:05;;;;;;;2.13;0.80;;;;;;;6.07;63.78;99110.78;10340952;28;20042;-73
2022/02/16 05:31:07;;;;;;;1.48;0.50;;;;;;;6.01;64.26;99104.88;10322220;28;20393;-74
2022/02/16 05:36:08;;;;;;;1.90;0.70;;;;;;;6.02;64.62;99103.97;10341144;28;20042;-73
2022/02/16 05:41:11;;;;;;;1.10;0.65;;;;;;;6.13;64.03;99094.09;10319632;28;20057;-74
2022/02/16 05:46:14;;;;;;;2.58;0.95;;;;;;;6.12;64.28;99087.19;10336225;28;20046;-73
2022/02/16 05:51:17;;;;;;;1.90;0.60;;;;;;;6.02;64.80;99083.97;10319459;28;20081;-74
2022/02/16 05:56:19;;;;;;;1.65;0.70;;;;;;;6.00;64.70;99083.16;10345174;28;20039;-72
2022/02/16 06:01:21;;;;;;;1.35;0.70;;;;;;;6.07;64.86;99066.44;10345423;28;20057;-73
2022/02/16 06:06:35;;;;;;;1.38;0.70;;;;;;;6.11;64.45;99066.31;10329107;28;20042;-73
2022/02/16 06:11:42;;;;;;;1.17;0.80;;;;;;;5.94;65.47;99065.06;10328396;28;20066;-71
2022/02/16 06:16:51;;;;;;;1.70;0.63;;;;;;;6.05;64.95;99059.53;10328611;28;20049;-73
2022/02/16 06:21:53;;;;;;;3.15;0.70;;;;;;;6.18;64.74;99053.06;10344924;28;20077;-73
2022/02/16 06:26:55;;;;;;;1.27;0.90;;;;;;;6.20;64.70;99050.44;10328313;28;20043;-72
2022/02/16 06:31:57;;;;;;;2.35;0.73;;;;;;;6.33;64.51;99054.38;10344752;28;20117;-72
2022/02/16 06:36:59;;;;;;;1.85;0.80;;;;;;;6.32;64.26;99042.22;10326363;28;20112;-72
2022/02/16 06:42:01;;;;;;;1.27;0.82;;;;;;;6.20;65.39;99053.88;10326635;28;20080;-73
2022/02/16 06:47:03;;;;;;;0.90;0.60;;;;;;;6.18;65.35;99037.41;10342428;28;20042;-72
2022/02/16 06:52:06;;;;;;;2.03;0.77;;;;;;;6.06;66.16;99037.75;10326520;28;20046;-72
2022/02/16 06:57:08;;;;;;;1.60;0.60;;;;;;;6.17;65.65;99030.50;10326923;28;20417;-72
2022/02/16 07:02:33;;;;;;;1.27;0.65;;;;;;;6.28;65.48;99024.94;10333733;28;20082;-71
2022/02/16 07:07:34;;;;;;;1.45;0.60;;;;;;;6.23;66.34;99021.59;10324813;28;20097;-73
2022/02/16 07:12:37;;;;;;;1.42;0.70;;;;;;;6.43;66.01;99021.00;10341177;28;20073;-72
2022/02/16 07:17:40;;;;;;;0.75;0.50;;;;;;;6.51;65.81;99009.44;10325316;28;20054;-71
2022/02/16 07:22:45;;;;;;;1.95;0.50;;;;;;;6.58;65.35;98997.88;10340014;28;20120;-71
2022/02/16 07:27:47;;;;;;;0.90;0.70;;;;;;;6.65;65.91;98982.03;10325069;28;20042;-71
2022/02/16 07:32:53;;;;;;;0.57;0.50;;;;;;;6.75;65.77;98986.03;10341377;28;20073;-71
2022/02/16 07:37:57;;;;;;;0.57;0.50;;;;;;;6.86;65.28;98986.50;10343304;28;20036;-72
2022/02/16 07:43:03;;;;;;;0.70;0.60;;;;;;;6.90;65.24;98972.44;10326557;28;20042;-72
2022/02/16 07:48:23;;;;;;;0.63;0.30;;;;;;;6.97;65.68;98962.66;10343154;28;20042;-71
2022/02/16 07:53:25;;;;;;;0.65;0.40;;;;;;;7.06;65.27;98957.13;10325119;28;20055;-71
2022/02/16 07:58:29;;;;;;;0.85;0.30;;;;;;;7.06;66.18;98955.34;10325303;28;20038;-71
2022/02/16 08:03:31;;;;;;;0.50;0.50;;;;;;;6.86;66.92;98947.34;10341232;28;20104;-71
2022/02/16 08:08:33;;;;;;;0.63;0.22;;;;;;;6.85;67.72;98947.41;10341946;28;20042;-73
2022/02/16 08:13:35;;;;;;;1.23;0.35;;;;;;;6.87;68.29;98935.16;10341989;28;20411;-72
2022/02/16 08:18:44;;;;;;;1.70;0.30;;;;;;;6.91;69.13;98937.59;10325589;28;20420;-72
2022/02/16 08:23:45;;;;;;;4.03;0.60;;;;;;;6.90;68.47;98928.03;10342822;28;20047;-71
2022/02/16 08:28:47;;;;;;;0.65;0.30;;;;;;;7.05;68.84;98914.47;10324539;28;20058;-71
2022/02/16 08:33:49;;;;;;;1.85;0.50;;;;;;;6.93;70.36;98893.13;10341228;28;20080;-72
2022/02/16 08:38:51;;;;;;;0.45;0.40;;;;;;;6.96;70.12;98893.03;10332070;28;20065;-72
2022/02/16 08:43:53;;;;;;;0.50;0.20;;;;;;;7.28;68.11;98878.81;10349027;28;20042;-71
2022/02/16 08:49:00;;;;;;;2.03;0.95;;;;;;;7.28;69.07;98863.13;10332480;28;20054;-72
2022/02/16 08:54:02;;;;;;;0.40;0.38;;;;;;;7.50;68.06;98837.88;10349925;28;20054;-72
2022/02/16 08:59:04;;;;;;;0.20;0.20;;;;;;;7.53;66.62;98824.69;10348284;28;20046;-72
2022/02/16 09:04:07;;;;;;;0.38;0.20;;;;;;;7.73;66.81;98808.19;10349277;28;20097;-71
2022/02/16 09:09:08;;;;;;;0.57;0.30;;;;;;;7.95;65.20;98802.94;10347677;28;20440;-72
2022/02/16 09:14:10;;;;;;;0.57;0.57;;;;;;;8.13;64.92;98798.72;10347772;28;20053;-72
2022/02/16 09:19:11;;;;;;;1.65;0.30;;;;;;;8.50;63.59;98784.97;10348508;28;20121;-71
2022/02/16 09:24:13;;;;;;;1.50;0.40;;;;;;;8.82;61.64;98774.84;10350448;28;20061;-73
2022/02/16 09:29:17;;;;;;;0.20;0.10;;;;;;;8.79;60.52;98760.09;10331811;28;20057;-72
2022/02/16 09:34:18;;;;;;;0.43;0.20;;;;;;;8.72;62.15;98757.81;10349613;28;20054;-72
2022/02/16 09:39:20;;;;;;;0.82;0.32;;;;;;;8.76;62.33;98748.91;10347200;28;20046;-71
2022/02/16 09:44:33;;;;;;;0.63;0.20;;;;;;;8.72;60.97;98739.47;10346539;28;20046;-71
2022/02/16 09:49:38;;;;;;;0.22;0.20;;;;;;;8.89;60.88;98729.09;10346172;28;20038;-71
2022/02/16 09:54:41;;;;;;;0.30;0.20;;;;;;;9.41;60.13;98713.53;10330419;28;20104;-71
2022/02/16 09:59:42;;;;;;;0.20;0.20;;;;;;;9.39;58.82;98699.66;10346903;28;20046;-71
2022/02/16 10:04:55;;;;;;;0.17;0.17;;;;;;;9.64;57.75;98683.56;10346112;28;20129;-72
2022/02/16 10:10:29;;;;;;;0.30;0.20;;;;;;;9.90;56.85;98684.88;10345442;28;20412;-71
2022/02/16 10:15:33;;;;;;;0.20;0.17;;;;;;;10.08;57.66;98686.56;10144530;29;20068;-71
2022/02/16 10:20:35;;;;;;;0.47;0.20;;;;;;;9.92;57.11;98655.97;10144251;29;20056;-71
2022/02/16 10:25:37;;;;;;;4.35;0.30;;;;;;;9.81;56.65;98659.97;10129121;29;20060;-71
2022/02/16 10:31:00;;;;;;;0.20;0.20;;;;;;;9.81;57.89;98646.84;10143356;29;20069;-71
2022/02/16 10:36:06;;;;;;;0.28;0.20;;;;;;;9.78;57.23;98649.63;10142588;29;20131;-70
2022/02/16 10:41:08;;;;;;;1.05;0.20;;;;;;;9.72;57.96;98647.31;10126611;29;20151;-71
2022/02/16 10:46:22;;;;;;;2.10;0.20;;;;;;;9.69;57.80;98631.69;10143101;29;20059;-71
2022/02/16 10:51:23;;;;;;;0.05;0.05;;;;;;;9.74;57.79;98634.97;10308778;28;20066;-72
2022/02/16 10:56:25;;;;;;;0.20;0.13;;;;;;;9.60;58.88;98614.66;10344616;28;20042;-71
2022/02/16 11:01:27;;;;;;;0.20;0.20;;;;;;;9.49;59.99;98603.03;10344904;28;20054;-72
2022/02/16 11:06:29;;;;;;;0.20;0.10;;;;;;;9.27;63.27;98596.22;10329273;28;20085;-73
2022/02/16 11:11:31;;;;;;;0.28;0.13;;;;;;;9.05;63.98;98582.47;10345956;28;20116;-73
2022/02/16 11:16:36;;;;;;;0.20;0.20;;;;;;;9.01;63.71;98567.81;10346217;28;20046;-72
2022/02/16 11:22:06;;;;;;;0.30;0.20;;;;;;;9.16;63.19;98537.34;10343948;28;20081;-73
2022/02/16 11:27:29;;;;;;;0.10;0.10;;;;;;;9.30;63.61;98534.91;10346472;28;20046;-73
2022/02/16 11:32:39;;;;;;;1.10;0.30;;;;;;;9.20;62.78;98515.31;10348080;28;20047;-73
2022/02/16 11:37:42;;;;;;;0.60;0.30;;;;;;;9.24;63.36;98509.84;10344597;28;20042;-73
2022/02/16 11:42:46;;;;;;;0.43;0.20;;;;;;;9.37;62.37;98510.06;10345326;28;20563;-72
2022/02/16 11:47:49;;;;;;;0.32;0.20;;;;;;;9.65;61.44;98487.63;10346387;28;20046;-73
2022/02/16 11:52:50;;;;;;;0.30;0.20;;;;;;;9.65;63.00;98464.91;10328827;28;20042;-72
2022/02/16 11:58:16;;;;;;;0.30;0.20;;;;;;;9.49;63.71;98471.88;10336354;28;20137;-73
2022/02/16 12:03:51;;;;;;;0.32;0.20;;;;;;;9.41;65.02;98456.53;10336909;28;20046;-72
2022/02/16 12:08:54;;;;;;;0.20;0.20;;;;;;;9.33;64.60;98435.94;10338195;28;20397;-73
2022/02/16 12:14:09;;;;;;;0.10;0.10;;;;;;;9.44;65.49;98411.78;10346255;28;20105;-73
2022/02/16 12:19:15;;;;;;;0.20;0.20;;;;;;;9.63;63.89;98408.19;10344099;28;20069;-73
2022/02/16 12:24:22;;;;;;;0.20;0.20;;;;;;;9.63;63.66;98398.53;10345104;28;20042;-72
2022/02/16 12:29:29;;;;;;;0.10;0.10;;;;;;;9.59;63.68;98394.38;10341642;28;20053;-72
2022/02/16 12:34:46;;;;;;;0.20;0.10;;;;;;;9.73;63.65;98380.50;10343156;28;20493;-73
2022/02/16 12:39:57;;;;;;;0.15;0.15;;;;;;;9.75;63.68;98368.16;10342984;28;20043;-73
2022/02/16 12:44:59;;;;;;;0.30;0.20;;;;;;;9.63;65.65;98361.81;10342679;28;20113;-73
2022/02/16 12:50:11;;;;;;;0.10;0.10;;;;;;;9.49;67.33;98359.09;10343557;28;20042;-74
2022/02/16 12:55:13;;;;;;;0.10;0.10;;;;;;;9.32;68.43;98358.22;10343753;28;20515;-73
2022/02/16 13:05:43;;;;;;;0.30;0.20;;;;;;;9.21;69.15;98342.22;10343739;28;20428;-73
2022/02/16 13:10:46;;;;;;;0.10;0.10;;;;;;;9.41;67.64;98343.75;10343619;28;20121;-73
2022/02/16 13:15:49;;;;;;;0.10;0.10;;;;;;;9.47;68.25;98329.47;10344910;28;20038;-73
2022/02/16 13:21:09;;;;;;;0.10;0.10;;;;;;;9.57;68.40;98323.66;10345047;28;20492;-73
2022/02/16 13:26:13;;;;;;;0.10;0.10;;;;;;;9.54;67.28;98308.06;10343607;28;20362;-73
2022/02/16 13:31:28;;;;;;;0.20;0.20;;;;;;;9.60;67.24;98315.59;10342893;28;20101;-73
2022/02/16 13:36:42;;;;;;;0.20;0.10;;;;;;;9.66;67.26;98292.59;10345374;28;20038;-73
2022/02/16 13:41:56;;;;;;;0.20;0.10;;;;;;;9.62;67.36;98289.28;10327350;28;20085;-73
2022/02/16 13:47:02;;;;;;;0.20;0.20;;;;;;;9.52;67.68;98294.22;10342766;28;20043;-73
2022/02/16 13:52:11;;;;;;;0.40;0.28;;;;;;;9.60;67.01;98263.13;10342167;28;20039;-73
2022/02/16 13:57:21;;;;;;;0.52;0.30;;;;;;;9.71;66.70;98259.06;10343047;28;20146;-73
2022/02/16 14:02:23;;;;;;;0.28;0.10;;;;;;;9.83;65.29;98261.84;10343239;28;20046;-73
2022/02/16 14:07:25;;;;;;;0.20;0.10;;;;;;;9.82;65.32;98256.66;10343775;28;20039;-73
2022/02/16 14:12:47;;;;;;;0.20;0.13;;;;;;;10.03;64.87;98244.94;10345186;28;20074;-74
2022/02/16 14:17:50;;;;;;;0.50;0.22;;;;;;;10.29;63.97;98234.72;10343614;28;20081;-73
2022/02/16 14:22:52;;;;;;;0.98;0.30;;;;;;;10.41;63.39;98214.78;10342343;28;20058;-72
2022/02/16 14:27:54;;;;;;;0.85;0.20;;;;;;;10.44;62.63;98210.16;10340723;28;20046;-72
2022/02/16 14:32:56;;;;;;;0.30;0.20;;;;;;;10.41;62.88;98231.38;10334029;28;20501;-73
2022/02/16 14:37:57;;;;;;;0.30;0.20;;;;;;;10.46;62.25;98212.72;10342383;28;20046;-73
2022/02/16 14:42:59;;;;;;;1.27;0.20;;;;;;;10.39;62.75;98206.97;10343097;28;20052;-73
2022/02/16 14:48:01;;;;;;;0.25;0.10;;;;;;;10.38;62.73;98215.78;10341944;28;20050;-73
2022/02/16 14:53:02;;;;;;;0.38;0.20;;;;;;;10.29;62.78;98253.13;10323582;28;20054;-72
2022/02/16 14:58:05;;;;;;;0.40;0.20;;;;;;;10.14;64.29;98280.22;10340303;28;20416;-74
2022/02/16 15:03:08;;;;;;;0.10;0.10;;;;;;;10.20;63.78;98267.59;10341279;28;20100;-73
2022/02/16 15:08:09;;;;;;;0.10;0.10;;;;;;;10.25;63.50;98252.44;10339797;28;20465;-73
2022/02/16 15:13:11;;;;;;;0.85;0.20;;;;;;;10.26;63.74;98221.78;10322780;28;20476;-71
2022/02/16 15:18:13;;;;;;;0.55;0.30;;;;;;;10.21;64.10;98242.19;10339915;28;20050;-72
2022/02/16 15:23:15;;;;;;;1.25;0.17;;;;;;;10.37;63.69;98306.03;10338547;28;20050;-72
2022/02/16 15:28:19;;;;;;;0.20;0.10;;;;;;;10.27;64.12;98297.84;10338485;28;20121;-72
2022/02/16 15:33:23;;;;;;;0.32;0.20;;;;;;;10.33;63.57;98302.75;10337979;28;20141;-72
2022/02/16 15:38:25;;;;;;;0.47;0.10;;;;;;;10.33;63.71;98271.22;10335172;28;20100;-74
2022/02/16 15:43:29;;;;;;;0.20;0.20;;;;;;;10.25;64.80;98285.72;10338989;28;20117;-73
2022/02/16 15:48:33;;;;;;;0.45;0.20;;;;;;;10.29;64.33;98282.00;10338402;28;20078;-72
2022/02/16 15:53:37;;;;;;;0.10;0.10;;;;;;;10.33;64.19;98270.38;10335790;28;20073;-74
2022/02/16 15:58:38;;;;;;;1.50;0.20;;;;;;;10.30;64.16;98273.19;10337023;28;20058;-72
2022/02/16 16:03:40;;;;;;;0.30;0.10;;;;;;;10.31;64.24;98259.09;10335444;28;20046;-74
2022/02/16 16:08:44;;;;;;;0.30;0.20;;;;;;;10.29;64.42;98259.22;10335951;28;20464;-73
2022/02/16 16:13:46;;;;;;;0.60;0.20;;;;;;;10.13;65.50;98268.88;10333877;28;20053;-73
2022/02/16 16:18:52;;;;;;;0.20;0.10;;;;;;;10.30;64.60;98258.25;10335462;28;20527;-73
2022/02/16 16:23:54;;;;;;;0.75;0.10;;;;;;;10.25;64.86;98254.22;10337794;28;20072;-73
2022/02/16 16:28:57;;;;;;;0.63;0.20;;;;;;;10.24;65.30;98281.41;10336693;28;20039;-74
2022/02/16 16:33:58;;;;;;;0.15;0.10;;;;;;;10.30;64.90;98263.50;10336648;28;20077;-74
2022/02/16 16:39:00;;;;;;;0.10;0.10;;;;;;;10.30;64.94;98276.66;10334905;28;20042;-74
2022/02/16 16:44:02;;;;;;;0.38;0.10;;;;;;;10.22;65.82;98262.25;10336844;28;20049;-72
2022/02/16 16:49:04;;;;;;;0.20;0.20;;;;;;;10.38;65.06;98249.09;10334731;28;20047;-74
2022/02/16 16:54:09;;;;;;;0.20;0.20;;;;;;;10.38;65.27;98259.59;10333449;28;20038;-72
2022/02/16 16:59:11;;;;;;;0.20;0.20;;;;;;;10.32;65.93;98273.94;10341487;28;20038;-73
2022/02/16 17:04:14;;;;;;;0.88;0.10;;;;;;;10.38;65.86;98265.69;10342821;28;20038;-72
2022/02/16 17:09:15;;;;;;;0.13;0.13;;;;;;;10.36;66.28;98267.59;10341712;28;20042;-72
2022/02/16 17:14:17;;;;;;;0.35;0.20;;;;;;;10.40;66.39;98242.78;10342216;28;20042;-72
2022/02/16 17:19:19;;;;;;;0.38;0.17;;;;;;;10.40;66.65;98242.78;10341610;28;20053;-74
2022/02/16 17:24:20;;;;;;;0.20;0.17;;;;;;;10.63;66.26;98215.16;10356704;28;20054;-72
2022/02/16 17:29:22;;;;;;;0.40;0.20;;;;;;;10.63;66.33;98222.22;10321454;28;20119;-72
2022/02/16 17:34:24;;;;;;;0.20;0.20;;;;;;;10.60;66.75;98226.69;10338938;28;20072;-72
2022/02/16 17:39:25;;;;;;;0.52;0.28;;;;;;;10.59;67.23;98235.53;10341251;28;20385;-73
2022/02/16 17:44:42;;;;;;;0.20;0.20;;;;;;;10.64;67.18;98226.53;10340966;28;20515;-73
2022/02/16 17:49:47;;;;;;;0.30;0.20;;;;;;;10.75;67.26;98217.03;10339988;28;20447;-73
2022/02/16 17:54:50;;;;;;;0.15;0.15;;;;;;;10.79;67.44;98222.94;10361050;23;20100;-72
2022/02/16 18:00:19;;;;;;;0.17;0.13;;;;;;;10.75;67.83;98206.50;10430638;28;20410;-72
2022/02/16 18:05:21;;;;;;;0.20;0.10;;;;;;;10.81;67.90;98200.91;10427885;28;20085;-73
2022/02/16 18:10:23;;;;;;;0.77;0.65;;;;;;;10.88;67.39;98179.47;10407844;28;20117;-72
2022/02/16 18:15:26;;;;;;;0.20;0.20;;;;;;;10.88;67.87;98180.31;10408729;28;20045;-73
2022/02/16 18:20:28;;;;;;;0.40;0.30;;;;;;;10.70;68.53;98158.66;10410161;28;20064;-72
2022/02/16 18:25:29;;;;;;;0.45;0.20;;;;;;;10.83;68.62;98177.13;10406610;28;20136;-72
2022/02/16 18:30:31;;;;;;;0.20;0.20;;;;;;;10.98;67.83;98142.00;10406448;28;20060;-72
2022/02/16 18:35:34;;;;;;;0.35;0.17;;;;;;;10.99;67.74;98148.13;10406832;28;20525;-71
2022/02/16 18:40:36;;;;;;;0.22;0.10;;;;;;;11.09;67.32;98121.13;10392585;28;20561;-73
2022/02/16 18:45:39;;;;;;;0.85;0.30;;;;;;;11.18;67.21;98095.19;10408455;28;20128;-73
2022/02/16 18:50:41;;;;;;;0.80;0.20;;;;;;;11.17;67.10;98093.50;10424338;28;20038;-72
2022/02/16 18:55:43;;;;;;;0.20;0.10;;;;;;;11.30;66.60;98074.19;10408381;28;20140;-72
2022/02/16 19:00:45;;;;;;;0.30;0.20;;;;;;;11.23;66.72;98051.84;10425251;28;20048;-73
2022/02/16 19:05:48;;;;;;;0.25;0.20;;;;;;;11.33;66.50;98039.78;10427278;28;20037;-72
2022/02/16 19:10:50;;;;;;;0.47;0.13;;;;;;;11.37;66.24;98011.47;10424199;28;20129;-72
2022/02/16 19:15:55;;;;;;;0.20;0.20;;;;;;;11.43;66.27;97992.66;10426358;28;20120;-73
2022/02/16 19:20:57;;;;;;;0.25;0.20;;;;;;;11.37;66.57;97986.00;10408050;28;20128;-73
2022/02/16 19:25:59;;;;;;;0.85;0.20;;;;;;;11.35;66.59;97977.41;10428968;28;20100;-72
2022/02/16 19:31:03;;;;;;;0.32;0.10;;;;;;;11.42;66.76;97962.06;10408570;28;20103;-73
2022/02/16 19:36:05;;;;;;;0.20;0.20;;;;;;;11.38;67.20;97936.91;10404269;28;20050;-72
2022/02/16 19:41:07;;;;;;;0.55;0.20;;;;;;;11.43;67.11;97932.16;10419101;28;20053;-73
2022/02/16 19:46:09;;;;;;;0.30;0.10;;;;;;;11.36;67.56;97955.41;10406075;28;20041;-73
2022/02/16 19:51:10;;;;;;;0.13;0.10;;;;;;;11.51;66.83;97985.09;10403870;28;20073;-72
2022/02/16 19:56:13;;;;;;;0.17;0.17;;;;;;;11.52;67.29;97970.16;10402492;28;20128;-73
2022/02/16 20:01:14;;;;;;;0.20;0.20;;;;;;;11.56;67.15;97959.31;10403215;28;20103;-73
2022/02/16 20:06:16;;;;;;;0.10;0.10;;;;;;;11.61;67.07;97946.69;10421627;28;20041;-73
2022/02/16 20:11:18;;;;;;;0.20;0.20;;;;;;;11.75;66.71;97932.56;10407887;28;20419;-73
2022/02/16 20:16:20;;;;;;;0.20;0.20;;;;;;;11.80;66.44;97934.84;10390094;28;20049;-71
2022/02/16 20:21:21;;;;;;;0.22;0.20;;;;;;;11.71;66.61;97928.44;10422462;28;20065;-73
2022/02/16 20:26:25;;;;;;;0.43;0.30;;;;;;;11.74;66.48;97895.81;10402133;28;20045;-72
2022/02/16 20:31:27;;;;;;;0.10;0.10;;;;;;;11.80;66.12;97903.28;10426220;28;20487;-73
2022/02/16 20:36:29;;;;;;;0.13;0.10;;;;;;;11.87;65.94;97891.41;10428876;28;20454;-74
2022/02/16 20:41:31;;;;;;;0.57;0.15;;;;;;;11.94;65.34;97876.00;10426928;28;20057;-72
2022/02/16 20:46:33;;;;;;;0.20;0.13;;;;;;;11.94;65.21;97852.31;10410990;28;20050;-72
2022/02/16 20:51:36;;;;;;;0.10;0.10;;;;;;;11.85;66.95;97848.53;10427556;28;20109;-72
2022/02/16 20:56:38;;;;;;;0.30;0.30;;;;;;;11.86;66.43;97834.41;10393214;28;20052;-72
2022/02/16 21:01:40;;;;;;;0.17;0.10;;;;;;;11.96;65.33;97818.81;10409320;28;20084;-72
2022/02/16 21:06:42;;;;;;;0.80;0.20;;;;;;;11.91;65.81;97792.84;10392013;28;20069;-72
2022/02/16 21:11:43;;;;;;;0.20;0.20;;;;;;;11.76;66.84;97759.69;10408640;28;20053;-74
2022/02/16 21:16:46;;;;;;;0.68;0.40;;;;;;;11.90;65.74;97762.16;10429017;28;20049;-73
2022/02/16 21:22:07;;;;;;;1.02;0.30;;;;;;;12.01;64.65;97735.91;10413873;28;20128;-71
2022/02/16 21:27:20;;;;;;;0.25;0.25;;;;;;;12.10;64.79;97713.31;10426760;28;20041;-72
2022/02/16 21:32:23;;;;;;;0.30;0.30;;;;;;;11.93;65.76;97701.41;10409165;28;20127;-72
2022/02/16 21:37:27;;;;;;;0.70;0.30;;;;;;;11.91;67.44;97694.56;10429006;28;20042;-71
2022/02/16 21:42:28;;;;;;;0.47;0.47;;;;;;;11.80;68.74;97690.06;10406429;28;20048;-72
2022/02/16 21:47:34;;;;;;;0.35;0.32;;;;;;;11.84;68.52;97694.19;10423638;28;20041;-72
2022/02/16 21:52:46;;;;;;;2.58;0.30;;;;;;;11.75;69.95;97679.06;10424268;28;20049;-72
2022/02/16 21:57:48;;;;;;;0.22;0.20;;;;;;;12.04;67.67;97653.19;10426202;28;20059;-72
2022/02/16 22:02:51;;;;;;;0.20;0.20;;;;;;;12.20;67.38;97655.50;10424048;28;20120;-72
2022/02/16 22:07:54;;;;;;;0.20;0.17;;;;;;;12.38;66.34;97657.56;10405809;28;20087;-72
2022/02/16 22:12:55;;;;;;;0.22;0.10;;;;;;;12.53;66.04;97608.13;10424399;28;20053;-72
2022/02/16 22:17:59;;;;;;;0.10;0.10;;;;;;;12.59;67.37;97593.63;10406339;28;20041;-72
2022/02/16 22:23:01;;;;;;;0.35;0.10;;;;;;;12.63;65.94;97556.38;10409073;28;20417;-72
2022/02/16 22:28:06;;;;;;;0.10;0.05;;;;;;;12.66;66.40;97555.31;10423562;28;20433;-72
2022/02/16 22:33:08;;;;;;;0.00;0.00;;;;;;;12.57;67.13;97548.97;10422615;28;20139;-72
2022/02/16 22:38:10;;;;;;;0.25;0.03;;;;;;;12.83;66.21;97490.66;10421786;28;20048;-72
2022/02/16 22:43:16;;;;;;;0.17;0.10;;;;;;;12.95;66.69;97497.56;10407640;28;20037;-72
2022/02/16 22:48:18;;;;;;;2.35;0.00;;;;;;;12.87;67.00;97466.56;10404776;28;20506;-71
2022/02/16 22:53:20;;;;;;;0.10;0.10;;;;;;;12.89;66.68;97458.53;10412738;28;20049;-72
2022/02/16 22:58:23;;;;;;;0.52;0.00;;;;;;;13.09;65.65;97451.59;10403344;28;20045;-71
2022/02/16 23:03:25;;;;;;;0.80;0.00;;;;;;;13.08;66.02;97405.94;10423897;28;20045;-72
2022/02/16 23:13:46;;;;;;;0.03;0.00;;;;;;;13.19;65.80;97418.22;10420231;28;20047;-72
2022/02/16 23:18:48;;;;;;;0.20;0.00;;;;;;;13.19;66.02;97412.94;10419775;28;20041;-72
2022/02/16 23:23:53;;;;;;;0.20;0.00;;;;;;;13.21;65.87;97407.56;10402657;28;20053;-72
2022/02/16 23:28:55;;;;;;;1.02;0.20;;;;;;;13.29;65.61;97439.44;10421629;28;20100;-71
2022/02/16 23:33:58;;;;;;;1.98;0.08;;;;;;;13.37;67.26;97442.28;10404229;28;20100;-72
2022/02/16 23:39:00;;;;;;;0.47;0.00;;;;;;;12.98;70.73;97420.88;10420220;28;20479;-72
2022/02/16 23:44:01;;;;;;;0.45;0.00;;;;;;;12.96;70.34;97414.03;10402431;28;20057;-72
2022/02/16 23:49:03;;;;;;;0.00;0.00;;;;;;;13.07;69.79;97382.34;10421704;28;20133;-71
2022/02/16 23:54:05;;;;;;;0.00;0.00;;;;;;;13.14;68.95;97383.47;10419738;28;20045;-73